Weather

The location could not be found.

 

 

For a detailed forecast click the banner below.

ballooncastlogo

 

 

Available data for KABQ from the past 2 hours
ALBUQUERQUE, NM
Metar
KABQ 210152Z 27014KT 10SM BKN150 BKN170 24/M08 A2985 RMK AO2 SLP040 VIRGA T02391078

01:52 UTC

Wind: 270° 14kt

Visibility: 10 SM

Sky: BKN 15000 ft

Temp: 24 deg C / 75.2 deg F

Dewpoint: -8 deg C / 17.6 deg F

Pressure: 29.85 inHg

TAF
KABQ 202329Z 2100/2124 24015G25KT P6SM BKN120 FM210200 24010KT P6SM SCT120 FM210600 21006KT P6SM FEW200 FM211700 25013G23KT P6SM FEW110
Pirep (1)
ABQ UA /OV ABQ075020/TM 0231/FL220/TP PC12/TA M21/IC LGT RIME/RM ZAB/FDCS